createdAt,value
2019-04-07T00:02:11.937Z,33.50
2019-04-07T00:04:41.429Z,32.87
2019-04-07T00:07:12.696Z,32.90
2019-04-07T00:09:41.665Z,39.87
2019-04-07T00:12:11.108Z,38.47
2019-04-07T00:14:40.229Z,32.37
2019-04-07T00:17:09.334Z,31.73
2019-04-07T00:19:38.797Z,35.93
2019-04-07T00:22:07.989Z,36.83
2019-04-07T00:24:37.058Z,46.23
2019-04-07T00:27:06.027Z,35.80
2019-04-07T00:29:35.513Z,40.13
2019-04-07T00:32:04.746Z,35.07
2019-04-07T00:34:33.805Z,40.40
2019-04-07T00:37:03.082Z,35.10
2019-04-07T00:39:32.308Z,40.07
2019-04-07T00:42:01.785Z,40.97
2019-04-07T00:44:31.144Z,32.00
2019-04-07T00:47:00.300Z,38.33
2019-04-07T00:49:29.710Z,36.20
2019-04-07T00:51:59.700Z,41.17
2019-04-07T00:54:28.601Z,39.50
2019-04-07T00:56:57.791Z,35.87
2019-04-07T00:59:26.809Z,37.27
2019-04-07T01:01:55.774Z,43.53
2019-04-07T01:04:25.213Z,39.30
2019-04-07T01:06:54.858Z,40.77
2019-04-07T01:09:24.518Z,45.13
2019-04-07T01:11:53.982Z,43.73
2019-04-07T01:14:23.628Z,42.50
2019-04-07T01:16:52.953Z,40.93
2019-04-07T01:19:22.656Z,40.20
2019-04-07T01:21:53.558Z,42.83
2019-04-07T01:24:22.694Z,41.43
2019-04-07T01:26:51.695Z,39.57
2019-04-07T01:29:20.985Z,37.37
2019-04-07T01:31:50.585Z,40.30
2019-04-07T01:34:19.712Z,42.83
2019-04-07T01:36:49.185Z,37.43
2019-04-07T01:39:18.353Z,36.03
2019-04-07T01:41:55.204Z,35.97
2019-04-07T01:44:32.002Z,38.40
2019-04-07T01:47:06.248Z,35.57
2019-04-07T01:49:46.604Z,40.00
2019-04-07T01:52:23.627Z,36.80
2019-04-07T01:54:57.529Z,37.80
2019-04-07T01:57:41.074Z,38.83
2019-04-07T02:00:29.099Z,37.83
2019-04-07T02:03:03.375Z,36.40
2019-04-07T02:05:42.823Z,37.77
2019-04-07T02:08:29.805Z,30.80
2019-04-07T02:11:00.366Z,24.07
2019-04-07T02:13:48.243Z,23.77
2019-04-07T02:16:35.655Z,22.53
2019-04-07T02:19:06.364Z,20.37
2019-04-07T02:21:43.812Z,28.33
2019-04-07T02:24:17.940Z,22.13
2019-04-07T02:26:48.657Z,18.80
2019-04-07T02:29:23.379Z,31.67
2019-04-07T02:31:54.088Z,20.77
2019-04-07T02:34:42.447Z,29.23
2019-04-07T02:37:20.436Z,21.07
2019-04-07T02:39:54.877Z,20.93
2019-04-07T02:42:43.425Z,21.50
2019-04-07T02:45:32.360Z,17.97
2019-04-07T02:48:03.115Z,17.53
2019-04-07T02:50:43.397Z,17.70
2019-04-07T02:53:16.738Z,22.97
2019-04-07T02:55:50.740Z,18.00
2019-04-07T02:58:27.805Z,16.13
2019-04-07T03:01:15.048Z,15.07
2019-04-07T03:03:48.374Z,15.07
2019-04-07T03:06:41.646Z,22.23
2019-04-07T03:09:16.844Z,18.63
2019-04-07T03:11:50.985Z,15.30
2019-04-07T03:14:25.018Z,33.50
2019-04-07T03:17:12.062Z,27.13
2019-04-07T03:20:00.658Z,20.43
2019-04-07T03:22:50.613Z,17.43
2019-04-07T03:25:21.367Z,15.10
2019-04-07T03:27:52.757Z,12.40
2019-04-07T03:30:28.379Z,12.77
2019-04-07T03:33:11.269Z,13.93
2019-04-07T03:35:46.002Z,16.20
2019-04-07T03:38:16.329Z,18.50
2019-04-07T03:40:53.198Z,17.30
2019-04-07T03:43:26.652Z,24.43
2019-04-07T03:45:57.268Z,30.67
2019-04-07T03:48:33.683Z,32.10
2019-04-07T03:51:04.230Z,32.20
2019-04-07T03:53:37.653Z,25.10
2019-04-07T03:56:10.991Z,26.87
2019-04-07T03:58:50.876Z,21.63
2019-04-07T04:01:30.380Z,21.60
2019-04-07T04:04:04.133Z,16.30
2019-04-07T04:06:51.541Z,16.37
2019-04-07T04:09:22.352Z,18.67
2019-04-07T04:11:55.651Z,21.93
2019-04-07T04:14:33.477Z,21.87
2019-04-07T04:17:02.558Z,23.53
2019-04-07T04:19:31.456Z,25.43
2019-04-07T04:22:00.652Z,24.43
2019-04-07T04:24:30.400Z,22.67
2019-04-07T04:26:59.385Z,24.07
2019-04-07T04:29:28.346Z,28.43
2019-04-07T04:31:57.293Z,32.77
2019-04-07T04:34:27.086Z,24.60
2019-04-07T04:36:56.391Z,20.30
2019-04-07T04:39:26.554Z,26.17
2019-04-07T04:41:55.710Z,15.73
2019-04-07T04:44:25.647Z,16.70
2019-04-07T04:46:54.846Z,33.80
2019-04-07T04:49:23.826Z,33.43
2019-04-07T04:51:52.765Z,33.00
2019-04-07T04:54:21.658Z,34.37
2019-04-07T04:56:51.513Z,36.40
2019-04-07T04:59:21.550Z,32.97
2019-04-07T05:01:51.286Z,35.17
2019-04-07T05:04:20.741Z,31.07
2019-04-07T05:06:49.813Z,38.67
2019-04-07T05:09:18.713Z,31.93
2019-04-07T05:11:47.623Z,32.03
2019-04-07T05:14:16.571Z,29.77
2019-04-07T05:16:45.455Z,31.17
2019-04-07T05:19:14.357Z,31.33
2019-04-07T05:21:43.613Z,31.43
2019-04-07T05:24:13.250Z,34.73
2019-04-07T05:26:42.163Z,33.73
2019-04-07T05:29:11.057Z,30.27
2019-04-07T05:31:40.175Z,37.50
2019-04-07T05:34:09.225Z,33.23
2019-04-07T05:36:38.160Z,29.83
2019-04-07T05:39:07.474Z,33.97
2019-04-07T05:41:36.500Z,33.80
2019-04-07T05:44:05.551Z,31.57
2019-04-07T05:46:38.546Z,35.23
2019-04-07T05:49:06.485Z,29.80
2019-04-07T05:51:37.048Z,32.30
2019-04-07T05:54:06.031Z,32.20
2019-04-07T05:56:36.034Z,33.63
2019-04-07T05:59:05.017Z,33.43
2019-04-07T06:01:34.541Z,32.93
2019-04-07T06:04:05.526Z,33.67
2019-04-07T06:06:34.481Z,30.67
2019-04-07T06:09:06.347Z,31.80
2019-04-07T06:11:36.010Z,30.60
2019-04-07T06:14:05.729Z,30.63
2019-04-07T06:16:34.920Z,30.57
2019-04-07T06:19:07.763Z,33.03
2019-04-07T06:21:34.582Z,36.53
2019-04-07T06:24:03.590Z,28.97
2019-04-07T06:26:33.067Z,32.10
2019-04-07T06:29:02.643Z,31.73
2019-04-07T06:31:33.272Z,31.77
2019-04-07T06:34:02.304Z,38.27
2019-04-07T06:36:31.924Z,36.93
2019-04-07T06:39:01.406Z,40.53
2019-04-07T06:41:32.325Z,33.87
2019-04-07T06:44:10.181Z,34.43
2019-04-07T06:46:41.242Z,31.63
2019-04-07T06:49:13.767Z,33.47
2019-04-07T06:51:44.570Z,31.93
2019-04-07T06:54:32.015Z,35.13
2019-04-07T06:57:08.517Z,31.70
2019-04-07T06:59:51.486Z,34.07
2019-04-07T07:02:39.043Z,33.40
2019-04-07T07:05:12.057Z,37.00
2019-04-07T07:07:51.005Z,30.07
2019-04-07T07:10:29.043Z,30.57
2019-04-07T07:13:01.916Z,23.90
2019-04-07T07:15:38.506Z,18.67
2019-04-07T07:18:10.087Z,20.07
2019-04-07T07:20:41.468Z,18.83
2019-04-07T07:23:13.338Z,20.37
2019-04-07T07:25:42.822Z,16.53
2019-04-07T07:28:13.358Z,14.87
2019-04-07T07:30:42.768Z,22.07
2019-04-07T07:33:12.593Z,17.63
2019-04-07T07:35:43.950Z,13.07
2019-04-07T07:38:12.617Z,13.07
2019-04-07T07:40:41.893Z,15.97
2019-04-07T07:43:12.176Z,13.00
2019-04-07T07:45:44.795Z,10.33
2019-04-07T07:48:12.060Z,13.13
2019-04-07T07:50:41.073Z,8.27
2019-04-07T07:53:10.514Z,8.13
2019-04-07T07:55:40.193Z,5.60
2019-04-07T07:58:10.543Z,7.17
2019-04-07T08:00:42.114Z,5.83
2019-04-07T08:03:10.330Z,8.23
2019-04-07T08:05:39.455Z,6.20
2019-04-07T08:08:08.427Z,3.93
2019-04-07T08:10:37.469Z,5.87
2019-04-07T08:13:08.099Z,5.57
2019-04-07T08:15:37.670Z,5.23
2019-04-07T08:18:08.365Z,4.57
2019-04-07T08:20:37.430Z,5.37
2019-04-07T08:23:06.874Z,4.57
2019-04-07T08:25:36.812Z,6.07
2019-04-07T08:28:06.143Z,5.50
2019-04-07T08:30:35.177Z,6.63
2019-04-07T08:33:04.882Z,5.37
2019-04-07T08:35:38.171Z,7.33
2019-04-07T08:38:04.630Z,5.87
2019-04-07T08:40:36.500Z,5.93
2019-04-07T08:43:04.134Z,7.10
2019-04-07T08:45:33.144Z,6.30
2019-04-07T08:48:02.312Z,5.20
2019-04-07T08:50:32.061Z,5.87
2019-04-07T08:53:01.049Z,6.00
2019-04-07T08:55:29.975Z,7.10
2019-04-07T08:58:01.702Z,5.53
2019-04-07T09:00:31.619Z,4.17
2019-04-07T09:03:05.406Z,5.20
2019-04-07T09:05:31.362Z,6.13
2019-04-07T09:08:03.591Z,8.47
2019-04-07T09:10:41.841Z,4.27
2019-04-07T09:13:10.836Z,9.07
2019-04-07T09:15:45.321Z,5.87
2019-04-07T09:18:20.440Z,5.47
2019-04-07T09:21:06.310Z,5.13
2019-04-07T09:23:42.937Z,7.17
2019-04-07T09:26:17.130Z,5.33
2019-04-07T09:28:55.723Z,4.40
2019-04-07T09:31:36.405Z,5.47
2019-04-07T09:34:12.880Z,6.93
2019-04-07T09:36:49.429Z,6.63
2019-04-07T09:39:32.122Z,6.73
2019-04-07T09:42:00.947Z,9.53
2019-04-07T09:44:49.532Z,6.80
2019-04-07T09:47:32.061Z,6.07
2019-04-07T09:50:09.104Z,6.50
2019-04-07T09:52:43.272Z,4.23
2019-04-07T09:55:28.760Z,5.73
2019-04-07T09:58:10.834Z,5.07
2019-04-07T10:00:57.674Z,5.80
2019-04-07T10:03:45.079Z,5.67
2019-04-07T10:06:18.517Z,8.27
2019-04-07T10:11:47.407Z,4.80
2019-04-07T10:14:18.473Z,5.90
2019-04-07T10:16:55.397Z,4.30
2019-04-07T10:19:35.161Z,5.83
2019-04-07T10:22:05.751Z,6.07
2019-04-07T10:24:51.746Z,4.77
2019-04-07T10:27:22.571Z,4.67
2019-04-07T10:29:53.211Z,4.93
2019-04-07T10:32:27.097Z,3.63
2019-04-07T10:35:15.705Z,3.40
2019-04-07T10:37:56.952Z,5.17
2019-04-07T10:40:36.310Z,3.90
2019-04-07T10:43:09.654Z,4.20
2019-04-07T10:45:40.548Z,6.43
2019-04-07T10:48:11.728Z,4.70
2019-04-07T10:50:42.703Z,3.53
2019-04-07T10:53:32.280Z,3.43
2019-04-07T10:56:03.824Z,4.33
2019-04-07T10:58:34.386Z,3.83
2019-04-07T11:01:22.153Z,4.50
2019-04-07T11:04:09.498Z,7.23
2019-04-07T11:06:43.854Z,4.50
2019-04-07T11:09:21.150Z,11.23
2019-04-07T11:12:08.850Z,3.23
2019-04-07T11:14:42.992Z,4.10
2019-04-07T11:17:29.242Z,5.90
2019-04-07T11:19:59.876Z,4.33
2019-04-07T11:22:47.229Z,3.27
2019-04-07T11:25:35.751Z,6.23
2019-04-07T11:28:21.774Z,3.83
2019-04-07T11:31:10.290Z,5.17
2019-04-07T11:33:56.392Z,2.67
2019-04-07T11:36:27.126Z,8.40
2019-04-07T11:39:00.582Z,3.43
2019-04-07T11:41:42.379Z,4.03
2019-04-07T11:44:22.813Z,3.20
2019-04-07T11:46:53.588Z,2.87
2019-04-07T11:49:24.686Z,1.63
2019-04-07T11:52:11.531Z,4.07
2019-04-07T11:54:45.004Z,3.57
2019-04-07T11:57:24.482Z,3.20
2019-04-07T12:00:12.357Z,2.97
2019-04-07T12:02:49.328Z,3.50
2019-04-07T12:05:37.821Z,4.30
2019-04-07T12:08:17.482Z,4.17
2019-04-07T12:10:56.214Z,4.70
2019-04-07T12:13:29.643Z,3.50
2019-04-07T12:16:03.713Z,2.47
2019-04-07T12:18:51.930Z,6.00
2019-04-07T12:21:23.278Z,3.17
2019-04-07T12:23:54.846Z,3.97
2019-04-07T12:26:42.511Z,2.97
2019-04-07T12:29:30.667Z,3.40
2019-04-07T12:32:13.337Z,2.70
2019-04-07T12:34:46.370Z,4.53
2019-04-07T12:37:31.795Z,4.27
2019-04-07T12:40:22.324Z,3.20
2019-04-07T12:43:02.503Z,2.93
2019-04-07T12:45:34.952Z,4.30
2019-04-07T12:48:21.862Z,2.23
2019-04-07T12:50:58.478Z,2.37
2019-04-07T12:53:32.153Z,3.63
2019-04-07T12:56:02.500Z,3.13
2019-04-07T12:58:36.879Z,3.80
2019-04-07T13:01:15.294Z,7.27
2019-04-07T13:03:43.558Z,2.50
2019-04-07T13:06:30.331Z,2.23
2019-04-07T13:09:01.035Z,2.83
2019-04-07T13:11:50.411Z,3.00
2019-04-07T13:14:24.885Z,3.87
2019-04-07T13:16:59.876Z,3.20
2019-04-07T13:19:34.161Z,2.53
2019-04-07T13:22:13.762Z,5.47
2019-04-07T13:24:48.508Z,4.77
2019-04-07T13:27:20.127Z,4.13
2019-04-07T13:29:50.804Z,2.60
2019-04-07T13:32:24.611Z,3.07
2019-04-07T13:35:04.863Z,2.00
2019-04-07T13:37:38.399Z,5.67
2019-04-07T13:40:18.354Z,2.47
2019-04-07T13:43:06.900Z,3.57
2019-04-07T13:45:47.261Z,7.83
2019-04-07T13:48:21.530Z,3.83
2019-04-07T13:51:01.039Z,4.73
2019-04-07T13:53:46.651Z,3.60
2019-04-07T13:56:33.248Z,3.73
2019-04-07T13:59:13.699Z,3.07
2019-04-07T14:02:03.093Z,4.37
2019-04-07T14:04:37.086Z,4.73
2019-04-07T14:07:18.138Z,3.33
2019-04-07T14:10:01.177Z,5.00
2019-04-07T14:12:32.381Z,3.67
2019-04-07T14:15:05.235Z,2.93
2019-04-07T14:17:36.287Z,5.20
2019-04-07T14:20:08.793Z,4.60
2019-04-07T14:22:56.633Z,3.10
2019-04-07T14:25:30.814Z,3.60
2019-04-07T14:28:14.391Z,3.90
2019-04-07T14:30:45.560Z,5.87
2019-04-07T14:33:16.654Z,3.90
2019-04-07T14:35:47.793Z,4.93
2019-04-07T14:38:24.343Z,4.00
2019-04-07T14:41:04.193Z,3.23
2019-04-07T14:43:50.940Z,3.67
2019-04-07T14:46:24.452Z,4.23
2019-04-07T14:49:04.433Z,3.77
2019-04-07T14:51:35.143Z,5.73
2019-04-07T14:54:08.911Z,3.53
2019-04-07T14:56:52.015Z,4.17
2019-04-07T14:59:38.432Z,7.40
2019-04-07T15:02:07.418Z,4.90
2019-04-07T15:04:45.488Z,5.30
2019-04-07T15:07:32.454Z,4.63
2019-04-07T15:10:06.180Z,7.20
2019-04-07T15:12:48.401Z,6.33
2019-04-07T15:15:17.343Z,5.03
2019-04-07T15:17:46.517Z,5.60
2019-04-07T15:20:15.721Z,5.37
2019-04-07T15:22:47.010Z,6.70
2019-04-07T15:25:16.404Z,6.13
2019-04-07T15:27:45.624Z,4.97
2019-04-07T15:30:16.527Z,4.10
2019-04-07T15:32:45.923Z,5.97
2019-04-07T15:35:15.484Z,6.20
2019-04-07T15:37:45.310Z,5.00
2019-04-07T15:40:14.271Z,6.40
2019-04-07T15:42:48.981Z,6.43
2019-04-07T15:45:15.080Z,4.10
2019-04-07T15:47:44.567Z,7.40
2019-04-07T15:50:13.865Z,6.57
2019-04-07T15:52:45.956Z,4.87
2019-04-07T15:55:14.660Z,7.57
2019-04-07T15:57:44.020Z,7.50
2019-04-07T16:00:13.128Z,7.67
2019-04-07T16:02:43.128Z,5.87
2019-04-07T16:05:12.522Z,6.57
2019-04-07T16:07:42.421Z,6.67
2019-04-07T16:10:13.496Z,6.83
2019-04-07T16:12:47.430Z,4.87
2019-04-07T16:15:16.522Z,7.00
2019-04-07T16:17:47.137Z,7.47
2019-04-07T16:20:22.931Z,7.27
2019-04-07T16:22:47.892Z,4.60
2019-04-07T16:25:17.697Z,4.03
2019-04-07T16:27:47.592Z,5.60
2019-04-07T16:30:19.461Z,5.57
2019-04-07T16:32:48.878Z,3.43
2019-04-07T16:35:18.284Z,4.37
2019-04-07T16:37:48.567Z,4.83
2019-04-07T16:40:18.425Z,4.10
2019-04-07T16:43:03.043Z,5.63
2019-04-07T16:45:18.137Z,4.03
2019-04-07T16:47:47.832Z,3.23
2019-04-07T16:50:18.904Z,4.50
2019-04-07T16:52:48.400Z,2.93
2019-04-07T16:55:33.760Z,3.33
2019-04-07T16:58:03.301Z,8.13
2019-04-07T17:00:32.498Z,5.63
2019-04-07T17:03:02.388Z,3.73
2019-04-07T17:05:32.270Z,5.70
2019-04-07T17:08:01.736Z,3.27
2019-04-07T17:10:33.829Z,4.27
2019-04-07T17:13:13.584Z,2.83
2019-04-07T17:15:34.834Z,3.60
2019-04-07T17:18:03.030Z,4.77
2019-04-07T17:20:34.943Z,2.40
2019-04-07T17:23:03.744Z,2.60
2019-04-07T17:25:34.511Z,3.17
2019-04-07T17:28:06.022Z,4.27
2019-04-07T17:30:37.993Z,5.40
2019-04-07T17:33:06.571Z,4.40
2019-04-07T17:35:35.953Z,2.33
2019-04-07T17:38:07.130Z,6.30
2019-04-07T17:40:37.815Z,3.13
2019-04-07T17:43:11.860Z,4.83
2019-04-07T17:45:43.115Z,2.87
2019-04-07T17:48:38.583Z,4.73
2019-04-07T17:51:11.717Z,2.87
2019-04-07T17:53:48.292Z,2.90
2019-04-07T17:56:20.133Z,6.50
2019-04-07T17:59:00.049Z,2.63
2019-04-07T18:01:34.148Z,2.50
2019-04-07T18:04:21.456Z,4.20
2019-04-07T18:07:06.143Z,5.40
2019-04-07T18:09:40.612Z,4.47
2019-04-07T18:12:19.728Z,5.63
2019-04-07T18:14:57.487Z,5.27
2019-04-07T18:17:48.325Z,3.47
2019-04-07T18:20:17.346Z,5.27
2019-04-07T18:22:57.011Z,4.20
2019-04-07T18:25:33.286Z,3.37
2019-04-07T18:28:03.029Z,3.83
2019-04-07T18:30:42.661Z,3.70
2019-04-07T18:33:17.631Z,2.77
2019-04-07T18:36:05.104Z,5.77
2019-04-07T18:38:44.902Z,4.13
2019-04-07T18:41:15.476Z,3.10
2019-04-07T18:44:04.542Z,3.53
2019-04-07T18:46:33.480Z,4.23
2019-04-07T18:49:05.118Z,4.50
2019-04-07T18:51:48.370Z,4.67
2019-04-07T18:54:22.698Z,4.57
2019-04-07T18:56:54.845Z,5.40
2019-04-07T18:59:34.630Z,7.23
2019-04-07T19:02:21.726Z,3.00
2019-04-07T19:05:02.022Z,2.30
2019-04-07T19:07:50.677Z,3.33
2019-04-07T19:10:27.940Z,3.50
2019-04-07T19:13:05.648Z,3.47
2019-04-07T19:15:51.141Z,3.87
2019-04-07T19:18:25.908Z,2.33
2019-04-07T19:20:56.621Z,3.67
2019-04-07T19:23:32.936Z,2.37
2019-04-07T19:26:04.241Z,2.90
2019-04-07T19:28:38.277Z,3.80
2019-04-07T19:31:25.776Z,5.53
2019-04-07T19:34:13.093Z,2.53
2019-04-07T19:36:45.945Z,2.03
2019-04-07T19:39:23.710Z,3.33
2019-04-07T19:42:08.346Z,3.90
2019-04-07T19:44:42.735Z,4.33
2019-04-07T19:47:13.034Z,3.60
2019-04-07T19:50:00.641Z,3.10
2019-04-07T19:52:47.757Z,2.97
2019-04-07T19:55:25.606Z,8.33
2019-04-07T19:57:54.744Z,4.77
2019-04-07T20:00:42.110Z,1.63
2019-04-07T20:03:29.342Z,4.63
2019-04-07T20:06:11.684Z,5.53
2019-04-07T20:08:42.284Z,2.43
2019-04-07T20:11:13.824Z,5.80
2019-04-07T20:13:44.652Z,5.50
2019-04-07T20:16:17.957Z,5.13
2019-04-07T20:18:59.526Z,6.83
2019-04-07T20:21:38.257Z,2.43
2019-04-07T20:24:03.654Z,3.43
2019-04-07T20:26:52.558Z,2.63
2019-04-07T20:29:21.566Z,5.07
2019-04-07T20:31:53.479Z,4.00
2019-04-07T20:34:36.489Z,6.03
2019-04-07T20:37:05.792Z,2.60
2019-04-07T20:39:53.236Z,4.33
2019-04-07T20:42:24.006Z,4.33
2019-04-07T20:45:15.365Z,3.87
2019-04-07T20:47:49.382Z,4.00
2019-04-07T20:50:31.840Z,2.93
2019-04-07T20:53:09.977Z,6.30
2019-04-07T20:55:44.079Z,4.60
2019-04-07T20:58:43.757Z,2.93
2019-04-07T21:01:22.630Z,4.80
2019-04-07T21:04:02.103Z,3.40
2019-04-07T21:06:50.773Z,3.80
2019-04-07T21:09:21.769Z,5.37
2019-04-07T21:12:01.081Z,4.10
2019-04-07T21:14:49.635Z,2.43
2019-04-07T21:17:32.559Z,3.67
2019-04-07T21:20:18.434Z,6.70
2019-04-07T21:22:58.019Z,5.13
2019-04-07T21:25:44.174Z,2.70
2019-04-07T21:28:14.820Z,4.10
2019-04-07T21:30:46.258Z,3.93
2019-04-07T21:33:17.407Z,3.80
2019-04-07T21:36:07.875Z,2.83
2019-04-07T21:38:37.835Z,3.00
2019-04-07T21:41:12.149Z,5.43
2019-04-07T21:43:46.715Z,3.33
2019-04-07T21:46:21.060Z,4.20
2019-04-07T21:49:00.699Z,6.10
2019-04-07T21:51:37.761Z,2.33
2019-04-07T21:54:14.039Z,3.63
2019-04-07T21:56:53.978Z,6.27
2019-04-07T21:59:28.450Z,3.00
2019-04-07T22:02:13.699Z,4.37
2019-04-07T22:05:00.781Z,3.37
2019-04-07T22:07:33.632Z,5.40
2019-04-07T22:10:07.417Z,3.97
2019-04-07T22:12:36.788Z,3.33
2019-04-07T22:15:10.924Z,5.60
2019-04-07T22:17:39.208Z,4.33
2019-04-07T22:20:08.536Z,4.23
2019-04-07T22:22:37.523Z,2.60
2019-04-07T22:25:08.679Z,3.47
2019-04-07T22:27:37.099Z,5.23
2019-04-07T22:30:07.759Z,4.60
2019-04-07T22:32:36.697Z,3.67
2019-04-07T22:35:06.875Z,4.57
2019-04-07T22:37:36.225Z,3.50
2019-04-07T22:40:19.222Z,8.90
2019-04-07T22:42:48.892Z,2.83
2019-04-07T22:45:19.039Z,4.77
2019-04-07T22:47:51.415Z,6.63
2019-04-07T22:50:18.682Z,2.40
2019-04-07T22:52:50.835Z,5.10
2019-04-07T22:55:19.263Z,4.10
2019-04-07T22:57:48.412Z,2.47
2019-04-07T23:00:19.500Z,3.33
2019-04-07T23:02:50.043Z,7.63
2019-04-07T23:05:19.193Z,8.57
2019-04-07T23:07:48.256Z,6.93
2019-04-07T23:10:17.760Z,7.20
2019-04-07T23:12:46.630Z,5.07
2019-04-07T23:15:16.519Z,3.80
2019-04-07T23:17:47.250Z,7.03
2019-04-07T23:20:17.089Z,7.97
2019-04-07T23:22:46.669Z,5.70
2019-04-07T23:25:15.743Z,4.23
2019-04-07T23:27:44.649Z,6.50
2019-04-07T23:30:14.013Z,4.40
2019-04-07T23:32:43.754Z,5.33
2019-04-07T23:35:12.810Z,6.93
2019-04-07T23:37:41.696Z,3.83
2019-04-07T23:40:10.690Z,3.20
2019-04-07T23:42:40.293Z,3.10
2019-04-07T23:45:10.277Z,4.30
2019-04-07T23:47:39.331Z,5.20
2019-04-07T23:50:09.073Z,4.83
2019-04-07T23:52:38.998Z,4.47
2019-04-07T23:55:08.034Z,3.03
2019-04-07T23:57:36.992Z,4.50
